Time;durP1;ratioP1;P1;durP2;ratioP2;P2;SDS_P1;SDS_P2;PMS_P1;PMS_P2;Temp;Humidity;BMP_temperature;BMP_pressure;BME280_temperature;BME280_humidity;BME280_pressure;Samples;Min_cycle;Max_cycle;Signal;HPM_P1;HPM_P2
2023/05/30 00:00:53;;;;;;;;;;;;;;;;;;;;;
2023/05/30 00:06:44;;;;;;;;;;;;;;;;;;;;;
2023/05/30 00:19:14;;;;;;;;;4.00;3.67;;;;;;;;5879281;23;3343842;-91
2023/05/30 00:25:22;;;;;;;;;4.00;4.00;;;;;;;;6018359;23;45348;-91
2023/05/30 00:46:25;;;;;;;;;;;;;;;;;;;;;
2023/05/30 00:49:39;;;;;;;;;4.00;4.00;;;;;;;;6278538;22;72644;-91
2023/05/30 00:52:41;;;;;;;;;;;;;;;;;;;;;
2023/05/30 00:55:19;;;;;;;;;4.00;4.00;;;;;;;;6215212;22;65620;-91
2023/05/30 01:04:11;;;;;;;;;4.00;4.00;;;;;;;;6007394;22;4730170;-91
2023/05/30 01:07:15;;;;;;;;;;;;;;;;;;;;;
2023/05/30 01:10:14;;;;;;;;;;;;;;;;;;;;;
2023/05/30 01:13:17;;;;;;;;;;;;;;;;;;;;;
2023/05/30 01:19:06;;;;;;;;;4.00;4.00;;;;;;;;6172043;22;2032487;-91
2023/05/30 01:22:04;;;;;;;;;;;;;;;;;;;;;
2023/05/30 01:37:47;;;;;;;;;;;;;;;;;;;;;
2023/05/30 01:44:03;;;;;;;;;;;;;;;;;;;;;
2023/05/30 01:49:51;;;;;;;;;;;;;;;;;;;;;
2023/05/30 02:01:49;;;;;;;;;3.67;3.67;;;;;;;;6215099;22;45281;-91
2023/05/30 02:04:33;;;;;;;;;4.00;4.00;;;;;;;;6182857;22;45403;-91
2023/05/30 02:10:49;;;;;;;;;;;;;;;;;;;;;
2023/05/30 02:16:50;;;;;;;;;;;;;;;;;;;;;
2023/05/30 02:20:01;;;;;;;;;;;;;;;;;;;;;
2023/05/30 02:29:25;;;;;;;;;;;;;;;;;;;;;
2023/05/30 02:32:30;;;;;;;;;;;;;;;;;;;;;
2023/05/30 02:44:57;;;;;;;;;;;;;;;;;;;;;
2023/05/30 02:57:31;;;;;;;;;;;;;;;;;;;;;
2023/05/30 03:05:57;;;;;;;;;4.00;3.00;;;;;;;;6281622;22;45384;-91
2023/05/30 03:12:11;;;;;;;;;;;;;;;;;;;;;
2023/05/30 03:15:05;;;;;;;;;3.00;3.00;;;;;;;;6291349;22;45387;-91
2023/05/30 03:30:25;;;;;;;;;;;;;;;;;;;;;
2023/05/30 03:36:09;;;;;;;;;;;;;;;;;;;;;
2023/05/30 03:38:45;;;;;;;;;;;;;;;;;;;;;
2023/05/30 03:41:40;;;;;;;;;;;;;;;;;;;;;
2023/05/30 03:44:36;;;;;;;;;;;;;;;;;;;;;
2023/05/30 03:59:50;;;;;;;;;3.00;3.00;;;;;;;;6175305;22;577310;-91
2023/05/30 04:03:00;;;;;;;;;;;;;;;;;;;;;
2023/05/30 04:05:53;;;;;;;;;;;;;;;;;;;;;
2023/05/30 04:19:00;;;;;;;;;5.80;5.80;;;;;;;;5954560;22;2114476;-91
2023/05/30 04:24:29;;;;;;;;;;;;;;;;;;;;;
2023/05/30 04:27:31;;;;;;;;;;;;;;;;;;;;;
2023/05/30 04:29:58;;;;;;;;;4.00;4.00;;;;;;;;6331262;22;45378;-91
2023/05/30 04:33:05;;;;;;;;;;;;;;;;;;;;;
2023/05/30 04:35:49;;;;;;;;;;;;;;;;;;;;;
2023/05/30 04:38:20;;;;;;;;;8.67;6.00;;;;;;;;6338851;22;73494;-91
2023/05/30 04:41:28;;;;;;;;;;;;;;;;;;;;;
2023/05/30 04:47:43;;;;;;;;;;;;;;;;;;;;;
2023/05/30 04:57:07;;;;;;;;;5.00;5.00;;;;;;;;5882905;23;2959912;-91
2023/05/30 05:00:13;;;;;;;;;5.00;5.00;;;;;;;;5104530;22;24682964;-92
2023/05/30 05:03:13;;;;;;;;;;;;;;;;;;;;;
2023/05/30 06:42:36;;;;;;;;;3.33;3.33;;;;;;;;6224617;22;3397980;-94
2023/05/30 06:45:01;;;;;;;;;5.33;5.33;;;;;;;;6374700;22;46300;-94
2023/05/30 06:47:27;;;;;;;;;3.67;3.67;;;;;;;;6374599;22;45253;-94
2023/05/30 06:55:02;;;;;;;;;5.00;3.67;;;;;;;;6323334;22;46600;-95
2023/05/30 06:57:27;;;;;;;;;4.00;4.00;;;;;;;;6045233;22;5133517;-94
2023/05/30 06:59:52;;;;;;;;;5.67;4.00;;;;;;;;5802056;22;6476063;-94
2023/05/30 07:02:20;;;;;;;;;4.00;3.50;;;;;;;;4529332;22;32930164;-94
2023/05/30 07:09:55;;;;;;;;;3.00;3.00;;;;;;;;5180045;22;16969929;-94
2023/05/30 07:12:21;;;;;;;;;4.00;4.00;;;;;;;;4586232;22;18888994;-94
2023/05/30 07:14:46;;;;;;;;;2.00;2.00;;;;;;;;6337955;22;150393;-94
2023/05/30 07:17:11;;;;;;;;;3.00;3.00;;;;;;;;6176855;22;1847507;-93
2023/05/30 07:19:37;;;;;;;;;3.75;3.75;;;;;;;;5925872;22;6292929;-95
2023/05/30 07:22:02;;;;;;;;;4.00;4.00;;;;;;;;4815593;22;18223356;-96
2023/05/30 07:24:27;;;;;;;;;4.33;4.33;;;;;;;;5854117;22;11224939;-94
2023/05/30 07:26:52;;;;;;;;;6.00;3.50;;;;;;;;5442154;22;7576588;-95
2023/05/30 07:29:18;;;;;;;;;2.00;2.00;;;;;;;;6342152;22;83857;-95
2023/05/30 07:31:44;;;;;;;;;3.25;3.25;;;;;;;;5591784;22;6085284;-93
2023/05/30 07:34:13;;;;;;;;;3.50;3.50;;;;;;;;3749304;22;15144623;-93
2023/05/30 07:36:39;;;;;;;;;4.00;4.00;;;;;;;;4282437;22;37671991;-94
2023/05/30 07:39:06;;;;;;;;;4.75;3.75;;;;;;;;4868277;22;6334608;-92
2023/05/30 07:41:32;;;;;;;;;1.33;1.33;;;;;;;;3664311;22;34144278;-94
2023/05/30 07:43:57;;;;;;;;;3.00;3.00;;;;;;;;4985104;22;14127574;-94
2023/05/30 07:46:22;;;;;;;;;4.67;4.67;;;;;;;;6206768;22;1564408;-94
2023/05/30 07:49:26;;;;;;;;;5.00;4.00;;;;;;;;6021035;22;40454362;-93
2023/05/30 07:51:51;;;;;;;;;5.25;5.25;;;;;;;;4465863;22;8120649;-94
2023/05/30 07:54:25;;;;;;;;;2.00;2.00;;;;;;;;3128890;22;40427730;-93
2023/05/30 07:56:50;;;;;;;;;2.67;2.67;;;;;;;;5498670;22;9827926;-94
2023/05/30 07:59:16;;;;;;;;;4.75;4.00;;;;;;;;5751550;22;5311192;-94
2023/05/30 08:01:41;;;;;;;;;4.00;4.00;;;;;;;;6259613;22;1006328;-94
2023/05/30 08:04:07;;;;;;;;;2.00;2.00;;;;;;;;6314943;22;45437;-93
2023/05/30 08:06:33;;;;;;;;;3.00;3.00;;;;;;;;6343713;22;45780;-93
2023/05/30 08:08:59;;;;;;;;;3.00;3.00;;;;;;;;6343746;22;45365;-93
2023/05/30 08:11:25;;;;;;;;;3.67;3.67;;;;;;;;6219394;22;1317049;-94
2023/05/30 08:13:52;;;;;;;;;4.00;4.00;;;;;;;;6057984;22;5844586;-94
2023/05/30 08:16:18;;;;;;;;;5.50;5.50;;;;;;;;5222105;22;6841131;-94
2023/05/30 08:18:45;;;;;;;;;4.00;4.00;;;;;;;;5959282;22;4057643;-94
2023/05/30 08:21:17;;;;;;;;;5.00;5.00;;;;;;;;5904006;22;14193395;-93
2023/05/30 08:23:45;;;;;;;;;3.00;3.00;;;;;;;;4760350;22;11235429;-94
2023/05/30 08:26:13;;;;;;;;;5.00;5.00;;;;;;;;4724652;22;7876718;-93
2023/05/30 08:28:38;;;;;;;;;4.00;4.00;;;;;;;;5978587;22;2199572;-93
2023/05/30 08:31:05;;;;;;;;;4.00;4.00;;;;;;;;6343187;22;45516;-94
2023/05/30 08:33:32;;;;;;;;;4.67;4.67;;;;;;;;5883545;22;4152974;-94
2023/05/30 08:35:57;;;;;;;;;3.00;3.00;;;;;;;;5752147;22;4298456;-93
2023/05/30 08:38:22;;;;;;;;;1.00;1.00;;;;;;;;6343917;22;46059;-94
2023/05/30 08:40:51;;;;;;;;;3.00;3.00;;;;;;;;6343168;22;45414;-93
2023/05/30 08:43:17;;;;;;;;;1.00;1.00;;;;;;;;5868276;22;4727240;-93
2023/05/30 08:45:42;;;;;;;;;3.67;3.67;;;;;;;;5926990;22;6873494;-94
2023/05/30 08:48:08;;;;;;;;;4.00;3.67;;;;;;;;6315452;22;45228;-92
2023/05/30 08:50:41;;;;;;;;;5.00;4.00;;;;;;;;6316555;22;45466;-92
2023/05/30 08:53:08;;;;;;;;;5.00;4.00;;;;;;;;6091777;22;3600939;-92
2023/05/30 08:55:52;;;;;;;;;4.00;4.00;;;;;;;;5725613;22;8765029;-93
2023/05/30 08:58:19;;;;;;;;;3.00;3.00;;;;;;;;5867676;22;10861509;-93
2023/05/30 09:00:53;;;;;;;;;;;;;;;;;;4826186;22;32122522;-95
2023/05/30 09:03:32;;;;;;;;;1.00;1.00;;;;;;;;3733666;22;32423337;-96
2023/05/30 09:06:10;;;;;;;;;3.67;3.67;;;;;;;;4606317;22;10370561;-94
2023/05/30 09:08:36;;;;;;;;;4.50;4.50;;;;;;;;4939984;22;25905378;-95
2023/05/30 09:11:08;;;;;;;;;4.00;4.00;;;;;;;;4866996;22;12030318;-94
2023/05/30 09:13:37;;;;;;;;;3.50;3.50;;;;;;;;1592250;22;39262594;-95
2023/05/30 09:16:05;;;;;;;;;4.67;4.67;;;;;;;;2115216;22;71454218;-95
2023/05/30 09:18:41;;;;;;;;;4.75;4.25;;;;;;;;3577873;22;16960106;-95
2023/05/30 09:21:15;;;;;;;;;4.25;4.25;;;;;;;;3207880;22;19025293;-96
2023/05/30 09:23:43;;;;;;;;;5.00;5.00;;;;;;;;6008185;22;7298074;-93
2023/05/30 09:26:14;;;;;;;;;4.00;4.00;;;;;;;;5350861;22;6024783;-93
2023/05/30 09:28:39;;;;;;;;;4.80;4.80;;;;;;;;6259156;22;1908568;-94
2023/05/30 09:31:04;;;;;;;;;4.67;4.67;;;;;;;;6177530;22;1711400;-93
2023/05/30 09:33:43;;;;;;;;;6.00;6.00;;;;;;;;5707166;22;4767439;-94
2023/05/30 09:36:08;;;;;;;;;4.00;4.00;;;;;;;;6342409;22;45261;-93
2023/05/30 09:38:34;;;;;;;;;2.67;2.67;;;;;;;;6343235;22;45123;-94
2023/05/30 09:41:02;;;;;;;;;6.33;6.33;;;;;;;;6315367;22;45183;-93
2023/05/30 09:43:34;;;;;;;;;5.00;4.00;;;;;;;;6343120;22;45557;-93
2023/05/30 09:46:03;;;;;;;;;6.33;6.33;;;;;;;;6313899;22;47139;-95
2023/05/30 09:48:32;;;;;;;;;5.00;5.00;;;;;;;;6346459;22;45281;-96
2023/05/30 09:51:00;;;;;;;;;4.00;4.00;;;;;;;;6345013;22;45182;-95
2023/05/30 09:53:28;;;;;;;;;4.00;4.00;;;;;;;;6318655;22;44737;-96
2023/05/30 09:56:05;;;;;;;;;4.00;4.00;;;;;;;;6243338;22;1867209;-95
2023/05/30 09:58:30;;;;;;;;;5.25;5.25;;;;;;;;5363140;22;8049674;-94
2023/05/30 10:00:56;;;;;;;;;2.67;2.67;;;;;;;;6306764;22;203533;-94
2023/05/30 10:03:39;;;;;;;;;5.00;5.00;;;;;;;;5299504;22;13925170;-94
2023/05/30 10:06:14;;;;;;;;;4.00;4.00;;;;;;;;6343089;22;45419;-94
2023/05/30 10:08:41;;;;;;;;;3.00;3.00;;;;;;;;5230305;22;8579554;-95
2023/05/30 10:11:08;;;;;;;;;6.67;6.67;;;;;;;;1600811;22;30445026;-94
2023/05/30 10:13:33;;;;;;;;;6.50;5.50;;;;;;;;4557004;22;11223221;-94
2023/05/30 10:16:00;;;;;;;;;4.00;3.67;;;;;;;;6189004;22;1578775;-93
2023/05/30 10:18:26;;;;;;;;;4.67;4.67;;;;;;;;6238829;22;2117300;-94
2023/05/30 10:20:51;;;;;;;;;2.33;2.33;;;;;;;;5824986;22;3598143;-94
2023/05/30 10:23:17;;;;;;;;;5.00;5.00;;;;;;;;6319651;22;45310;-95
2023/05/30 10:25:43;;;;;;;;;5.00;5.00;;;;;;;;6235648;22;1267732;-95
2023/05/30 10:28:17;;;;;;;;;4.00;4.00;;;;;;;;6022172;22;2800937;-94
2023/05/30 10:30:43;;;;;;;;;5.67;5.67;;;;;;;;6151464;22;3525033;-95
2023/05/30 10:33:09;;;;;;;;;5.67;5.33;;;;;;;;6314319;22;45392;-95
2023/05/30 10:35:35;;;;;;;;;5.00;5.00;;;;;;;;6343422;22;48625;-95
2023/05/30 10:38:01;;;;;;;;;5.00;5.00;;;;;;;;6303448;22;188787;-94
2023/05/30 10:40:36;;;;;;;;;5.67;5.67;;;;;;;;6314767;22;46988;-95
2023/05/30 10:43:25;;;;;;;;;4.67;4.67;;;;;;;;6314694;22;45419;-95
2023/05/30 10:46:10;;;;;;;;;6.33;5.00;;;;;;;;6292523;22;45383;-93
2023/05/30 10:48:43;;;;;;;;;5.67;5.67;;;;;;;;6344434;22;45384;-94
2023/05/30 10:51:10;;;;;;;;;5.00;5.00;;;;;;;;6344320;22;45203;-94
2023/05/30 10:59:14;;;;;;;;;5.00;5.00;;;;;;;;6332349;22;45733;-94
2023/05/30 11:01:40;;;;;;;;;5.00;5.00;;;;;;;;6314442;22;48049;-95
2023/05/30 11:06:44;;;;;;;;;6.00;6.00;;;;;;;;6325451;22;45669;-94
2023/05/30 11:09:14;;;;;;;;;10.00;8.00;;;;;;;;6344004;22;45191;-95
2023/05/30 11:11:40;;;;;;;;;3.00;3.00;;;;;;;;6315173;22;48069;-95
2023/05/30 11:14:06;;;;;;;;;5.33;5.33;;;;;;;;6337121;22;168064;-95
2023/05/30 11:16:32;;;;;;;;;8.00;8.00;;;;;;;;6314862;22;45397;-95
2023/05/30 11:19:19;;;;;;;;;5.00;5.00;;;;;;;;6314372;22;45485;-96
2023/05/30 11:22:00;;;;;;;;;6.00;6.00;;;;;;;;6315160;22;50248;-95
2023/05/30 11:24:29;;;;;;;;;5.00;5.00;;;;;;;;6329042;22;350248;-95
2023/05/30 11:26:55;;;;;;;;;4.00;4.00;;;;;;;;6314359;22;45396;-95
2023/05/30 11:29:33;;;;;;;;;6.00;6.00;;;;;;;;6311306;22;88779;-96
2023/05/30 11:31:59;;;;;;;;;6.00;6.00;;;;;;;;6208039;22;2163760;-95
2023/05/30 11:34:24;;;;;;;;;6.25;6.25;;;;;;;;6197050;22;2385076;-96
2023/05/30 11:36:50;;;;;;;;;6.00;5.33;;;;;;;;6162667;22;1963612;-95
2023/05/30 11:39:18;;;;;;;;;8.33;8.33;;;;;;;;6313108;22;50613;-96
2023/05/30 11:41:46;;;;;;;;;9.33;7.67;;;;;;;;6273911;22;934578;-95
2023/05/30 11:44:13;;;;;;;;;5.00;5.00;;;;;;;;6340614;22;45321;-96
2023/05/30 11:46:38;;;;;;;;;6.33;6.33;;;;;;;;6238782;22;1498215;-96
2023/05/30 11:49:04;;;;;;;;;0.67;0.67;;;;;;;;6344147;22;45089;-95
2023/05/30 11:51:30;;;;;;;;;8.33;8.33;;;;;;;;6317582;22;664982;-96
2023/05/30 11:53:56;;;;;;;;;5.33;5.33;;;;;;;;6319494;22;46099;-96
2023/05/30 11:56:21;;;;;;;;;4.00;4.00;;;;;;;;6345522;22;45310;-96
2023/05/30 11:58:49;;;;;;;;;5.67;5.67;;;;;;;;6343855;22;45404;-95
2023/05/30 12:01:15;;;;;;;;;6.67;6.67;;;;;;;;6315008;22;47002;-96
2023/05/30 12:03:43;;;;;;;;;5.00;5.00;;;;;;;;6315013;22;47454;-96
2023/05/30 12:06:12;;;;;;;;;9.00;8.00;;;;;;;;6345728;22;45349;-95
2023/05/30 12:08:41;;;;;;;;;7.00;7.00;;;;;;;;6316189;22;45496;-95
2023/05/30 12:11:06;;;;;;;;;6.00;6.00;;;;;;;;6343601;22;46196;-95
2023/05/30 12:13:32;;;;;;;;;8.00;8.00;;;;;;;;6343132;22;45079;-95
2023/05/30 12:15:57;;;;;;;;;7.00;7.00;;;;;;;;6315094;22;45215;-95
2023/05/30 12:18:23;;;;;;;;;7.25;7.25;;;;;;;;6241480;22;1147274;-95
2023/05/30 12:20:48;;;;;;;;;6.33;6.33;;;;;;;;6257775;22;1766171;-96
2023/05/30 12:23:14;;;;;;;;;8.00;8.00;;;;;;;;6332420;22;367616;-95
2023/05/30 12:25:39;;;;;;;;;5.00;5.00;;;;;;;;6266557;22;1342456;-95
2023/05/30 12:28:04;;;;;;;;;6.00;6.00;;;;;;;;6346279;22;45283;-95
2023/05/30 12:30:31;;;;;;;;;7.33;7.33;;;;;;;;6334715;22;165616;-94
2023/05/30 12:32:57;;;;;;;;;8.33;7.00;;;;;;;;6315534;22;45550;-95
2023/05/30 12:35:26;;;;;;;;;8.00;7.00;;;;;;;;6320463;22;542006;-95
2023/05/30 12:37:55;;;;;;;;;5.67;5.67;;;;;;;;6212262;22;2385009;-95
2023/05/30 12:40:24;;;;;;;;;6.00;6.00;;;;;;;;6289918;22;627064;-95
2023/05/30 12:42:49;;;;;;;;;7.00;7.00;;;;;;;;6302612;22;969493;-96
2023/05/30 12:45:15;;;;;;;;;6.33;6.33;;;;;;;;6310271;22;160735;-95
2023/05/30 12:47:40;;;;;;;;;7.00;7.00;;;;;;;;6317219;22;45160;-95
2023/05/30 12:50:06;;;;;;;;;7.00;7.00;;;;;;;;6342010;22;101297;-95
2023/05/30 12:52:31;;;;;;;;;8.33;8.33;;;;;;;;6344361;22;45234;-95
2023/05/30 12:54:57;;;;;;;;;8.00;8.00;;;;;;;;6343027;22;45210;-96
2023/05/30 12:57:26;;;;;;;;;7.67;7.67;;;;;;;;6344091;22;45312;-95
2023/05/30 12:59:52;;;;;;;;;11.67;10.00;;;;;;;;6315125;22;47976;-96
2023/05/30 13:02:20;;;;;;;;;9.00;9.00;;;;;;;;6348724;22;45423;-96
2023/05/30 13:04:45;;;;;;;;;7.00;7.00;;;;;;;;6343861;22;45380;-95
2023/05/30 13:07:12;;;;;;;;;9.67;9.67;;;;;;;;6344049;22;45302;-96
2023/05/30 13:09:38;;;;;;;;;7.00;7.00;;;;;;;;6344457;22;45305;-95
2023/05/30 13:12:04;;;;;;;;;9.00;7.33;;;;;;;;6344731;22;45277;-95
2023/05/30 13:14:31;;;;;;;;;7.33;7.33;;;;;;;;6343722;22;45162;-94
2023/05/30 13:16:56;;;;;;;;;8.00;8.00;;;;;;;;6309702;22;779966;-95
2023/05/30 13:19:21;;;;;;;;;10.00;10.00;;;;;;;;6314478;22;48121;-96
2023/05/30 13:21:47;;;;;;;;;7.33;7.33;;;;;;;;6313354;22;72079;-96
2023/05/30 13:24:12;;;;;;;;;9.00;9.00;;;;;;;;6347159;22;45258;-96
2023/05/30 13:26:37;;;;;;;;;9.33;9.00;;;;;;;;6280253;22;830683;-95
2023/05/30 13:29:06;;;;;;;;;7.00;7.00;;;;;;;;6233605;22;2215933;-96
2023/05/30 13:31:33;;;;;;;;;8.67;8.67;;;;;;;;6343352;22;45315;-95
2023/05/30 13:33:58;;;;;;;;;7.33;7.33;;;;;;;;6315813;22;45124;-96
2023/05/30 13:36:25;;;;;;;;;8.00;8.00;;;;;;;;6314522;22;66313;-95
2023/05/30 13:38:50;;;;;;;;;8.00;8.00;;;;;;;;6313756;22;47026;-93
2023/05/30 13:41:16;;;;;;;;;9.67;9.33;;;;;;;;6314818;22;45251;-93
2023/05/30 13:43:41;;;;;;;;;8.33;8.33;;;;;;;;6343647;22;45162;-93
2023/05/30 13:46:06;;;;;;;;;6.33;6.33;;;;;;;;6343232;22;45516;-93
2023/05/30 13:48:32;;;;;;;;;9.67;7.67;;;;;;;;6342100;22;79651;-93
2023/05/30 13:50:57;;;;;;;;;9.00;9.00;;;;;;;;6330626;22;232061;-93
2023/05/30 13:53:23;;;;;;;;;7.33;7.33;;;;;;;;6333341;22;287177;-93
2023/05/30 13:55:48;;;;;;;;;8.00;8.00;;;;;;;;6273228;22;544195;-93
2023/05/30 13:58:13;;;;;;;;;11.33;9.67;;;;;;;;6301422;22;610337;-93
2023/05/30 14:00:38;;;;;;;;;10.00;9.33;;;;;;;;6298379;22;302427;-94
2023/05/30 14:03:04;;;;;;;;;7.00;7.00;;;;;;;;6281001;22;1469589;-94
2023/05/30 14:05:29;;;;;;;;;7.50;7.50;;;;;;;;5798702;22;7083043;-92
2023/05/30 14:07:54;;;;;;;;;7.67;7.67;;;;;;;;6219852;22;1373199;-92
2023/05/30 14:10:22;;;;;;;;;8.50;7.50;;;;;;;;5287652;22;5146492;-93
2023/05/30 14:12:49;;;;;;;;;10.00;10.00;;;;;;;;5740602;22;6430416;-93
2023/05/30 14:15:15;;;;;;;;;9.33;9.33;;;;;;;;5672856;22;3392191;-92
2023/05/30 14:17:40;;;;;;;;;8.67;8.67;;;;;;;;6280638;22;826633;-92
2023/05/30 14:20:06;;;;;;;;;9.67;9.00;;;;;;;;6287878;22;624424;-92
2023/05/30 14:22:32;;;;;;;;;6.67;6.67;;;;;;;;6113425;22;2906281;-92
2023/05/30 14:24:57;;;;;;;;;6.67;6.67;;;;;;;;5969176;22;5950441;-92
2023/05/30 14:27:22;;;;;;;;;9.67;9.67;;;;;;;;6280007;22;1455739;-92
2023/05/30 14:29:47;;;;;;;;;12.67;9.00;;;;;;;;6314634;22;45339;-92
2023/05/30 14:32:13;;;;;;;;;7.00;7.00;;;;;;;;6342734;22;45364;-92
2023/05/30 14:34:38;;;;;;;;;8.00;8.00;;;;;;;;6122678;22;3098944;-92
2023/05/30 14:37:04;;;;;;;;;8.00;8.00;;;;;;;;5304154;22;4969270;-92
2023/05/30 14:39:30;;;;;;;;;7.60;7.60;;;;;;;;5307496;22;6911424;-92
2023/05/30 14:41:55;;;;;;;;;6.33;6.33;;;;;;;;6315041;22;45367;-92
2023/05/30 14:44:20;;;;;;;;;6.33;6.33;;;;;;;;6343257;22;45173;-92
2023/05/30 14:46:46;;;;;;;;;7.33;7.33;;;;;;;;5610489;22;7432496;-92
2023/05/30 14:49:11;;;;;;;;;7.67;7.67;;;;;;;;6314204;22;45279;-93
2023/05/30 14:51:36;;;;;;;;;7.00;6.00;;;;;;;;6348665;22;45190;-92
2023/05/30 14:54:02;;;;;;;;;8.75;8.75;;;;;;;;6304651;22;584389;-93
2023/05/30 14:56:27;;;;;;;;;6.00;6.00;;;;;;;;6308838;22;170316;-92
2023/05/30 14:58:53;;;;;;;;;8.00;8.00;;;;;;;;6155815;22;2991272;-92
2023/05/30 15:01:19;;;;;;;;;7.00;7.00;;;;;;;;6342103;22;45226;-92
2023/05/30 15:03:44;;;;;;;;;6.67;6.67;;;;;;;;6315506;22;45376;-92
2023/05/30 15:06:10;;;;;;;;;6.67;6.33;;;;;;;;6342572;22;46620;-92
2023/05/30 15:08:35;;;;;;;;;8.00;8.00;;;;;;;;6343007;22;45131;-92
2023/05/30 15:11:00;;;;;;;;;8.67;8.67;;;;;;;;6315012;22;45179;-92
2023/05/30 15:13:26;;;;;;;;;8.67;8.67;;;;;;;;6342649;22;45391;-92
2023/05/30 15:15:51;;;;;;;;;7.67;6.33;;;;;;;;6314512;22;46491;-92
2023/05/30 15:18:16;;;;;;;;;7.33;7.33;;;;;;;;6343211;22;45236;-92
2023/05/30 15:20:42;;;;;;;;;6.33;4.67;;;;;;;;6224316;22;2477136;-92
2023/05/30 15:23:07;;;;;;;;;6.33;6.33;;;;;;;;6342759;22;45525;-93
2023/05/30 15:25:32;;;;;;;;;7.00;7.00;;;;;;;;6313863;22;48285;-92
2023/05/30 15:27:59;;;;;;;;;6.33;6.33;;;;;;;;6346670;22;45294;-93
2023/05/30 15:30:24;;;;;;;;;6.00;6.00;;;;;;;;5651725;22;6406908;-92
2023/05/30 15:32:49;;;;;;;;;6.67;6.33;;;;;;;;6343473;22;45516;-92
2023/05/30 15:35:15;;;;;;;;;5.67;5.67;;;;;;;;6346861;22;45554;-92
2023/05/30 15:37:40;;;;;;;;;7.33;7.33;;;;;;;;6167827;22;1937208;-93
2023/05/30 15:40:06;;;;;;;;;8.00;6.67;;;;;;;;6344011;22;45305;-92
2023/05/30 15:42:31;;;;;;;;;6.33;6.33;;;;;;;;6346733;22;45547;-92
2023/05/30 15:44:56;;;;;;;;;5.00;5.00;;;;;;;;6344413;22;45277;-91
2023/05/30 15:47:21;;;;;;;;;5.00;5.00;;;;;;;;6320188;22;44655;-91
2023/05/30 15:49:47;;;;;;;;;5.33;5.00;;;;;;;;6331304;22;299776;-91
2023/05/30 15:52:12;;;;;;;;;6.33;6.33;;;;;;;;5891888;22;3436989;-91
2023/05/30 15:54:55;;;;;;;;;5.00;5.00;;;;;;;;5394601;22;17494412;-91
2023/05/30 15:57:20;;;;;;;;;6.17;6.17;;;;;;;;6035747;22;6872596;-91
2023/05/30 15:59:46;;;;;;;;;5.00;5.00;;;;;;;;4970434;22;10762716;-91
2023/05/30 16:02:22;;;;;;;;;8.00;8.00;;;;;;;;6065352;22;2300135;-96
2023/05/30 16:08:10;;;;;;;;;5.00;5.00;;;;;;;;5824933;22;6033783;-93
2023/05/30 16:10:38;;;;;;;;;4.00;4.00;;;;;;;;5402816;22;6227316;-92
2023/05/30 16:13:04;;;;;;;;;5.50;5.50;;;;;;;;6029644;22;5844908;-93
2023/05/30 16:15:30;;;;;;;;;5.00;5.00;;;;;;;;5218906;22;10117862;-91
2023/05/30 16:17:56;;;;;;;;;6.00;5.50;;;;;;;;6260310;22;1945563;-92
2023/05/30 16:20:21;;;;;;;;;5.00;5.00;;;;;;;;5850752;22;5105105;-92
2023/05/30 16:22:46;;;;;;;;;6.33;6.33;;;;;;;;6038381;22;3218194;-93
2023/05/30 16:25:21;;;;;;;;;4.00;4.00;;;;;;;;6321820;22;354723;-95
2023/05/30 16:37:53;;;;;;;;;5.67;5.67;;;;;;;;6175251;23;45587;-92
2023/05/30 19:21:46;;;;;;;;;3.00;3.00;;;;;;;;5736861;24;3943672;-92
2023/05/30 19:28:06;;;;;;;;;;;;;;;;;;;;;
